createdAt,value
2022-09-21T00:01:17.994Z,4.93
2022-09-21T00:03:45.565Z,5.10
2022-09-21T00:06:20.125Z,4.88
2022-09-21T00:08:47.718Z,4.70
2022-09-21T00:11:17.266Z,4.90
2022-09-21T00:13:45.835Z,4.90
2022-09-21T00:16:14.191Z,5.20
2022-09-21T00:18:41.203Z,5.55
2022-09-21T00:21:09.452Z,5.50
2022-09-21T00:23:36.886Z,4.78
2022-09-21T00:26:18.683Z,5.10
2022-09-21T00:28:45.854Z,5.07
2022-09-21T00:31:18.746Z,5.63
2022-09-21T00:33:45.534Z,4.93
2022-09-21T00:36:16.687Z,5.63
2022-09-21T00:38:44.314Z,5.07
2022-09-21T00:41:12.051Z,5.10
2022-09-21T00:43:47.145Z,5.45
2022-09-21T00:46:27.818Z,5.07
2022-09-21T00:48:55.154Z,5.30
2022-09-21T00:51:25.481Z,5.53
2022-09-21T00:53:57.478Z,4.85
2022-09-21T00:56:24.736Z,5.32
2022-09-21T00:58:54.862Z,5.63
2022-09-21T01:01:22.195Z,5.25
2022-09-21T01:03:51.683Z,5.25
2022-09-21T01:06:20.616Z,5.45
2022-09-21T01:08:54.748Z,5.63
2022-09-21T01:11:59.427Z,5.63
2022-09-21T01:14:53.301Z,4.83
2022-09-21T01:17:33.927Z,5.00
2022-09-21T01:20:06.387Z,5.22
2022-09-21T01:23:00.514Z,5.28
2022-09-21T01:25:56.551Z,4.35
2022-09-21T01:28:53.475Z,5.00
2022-09-21T01:31:26.043Z,5.28
2022-09-21T01:33:58.276Z,4.40
2022-09-21T01:36:29.424Z,5.00
2022-09-21T01:39:01.940Z,4.82
2022-09-21T01:41:31.910Z,5.07
2022-09-21T01:44:08.337Z,4.68
2022-09-21T01:46:37.137Z,4.60
2022-09-21T01:49:12.741Z,5.10
2022-09-21T01:51:45.178Z,5.00
2022-09-21T01:54:19.736Z,5.10
2022-09-21T01:56:51.854Z,4.95
2022-09-21T01:59:21.823Z,4.55
2022-09-21T02:01:53.815Z,4.55
2022-09-21T02:04:20.729Z,4.18
2022-09-21T02:06:49.185Z,4.80
2022-09-21T02:09:17.239Z,5.20
2022-09-21T02:11:45.240Z,4.82
2022-09-21T02:14:18.210Z,5.07
2022-09-21T02:17:09.456Z,5.30
2022-09-21T02:19:49.348Z,5.10
2022-09-21T02:22:29.201Z,4.88
2022-09-21T02:25:20.896Z,4.97
2022-09-21T02:27:53.537Z,5.82
2022-09-21T02:30:25.731Z,6.00
2022-09-21T02:33:33.710Z,5.97
2022-09-21T02:36:10.212Z,5.75
2022-09-21T02:38:47.251Z,5.85
2022-09-21T02:41:28.462Z,6.13
2022-09-21T02:44:33.743Z,6.43
2022-09-21T02:47:13.038Z,6.13
2022-09-21T02:49:45.908Z,5.70
2022-09-21T02:52:15.710Z,5.80
2022-09-21T02:54:44.759Z,5.47
2022-09-21T02:57:13.007Z,5.95
2022-09-21T02:59:40.546Z,6.18
2022-09-21T03:02:09.577Z,5.70
2022-09-21T03:04:36.913Z,5.82
2022-09-21T03:07:03.615Z,6.82
2022-09-21T03:09:30.291Z,5.75
2022-09-21T03:11:56.999Z,6.43
2022-09-21T03:14:23.776Z,6.25
2022-09-21T03:16:50.523Z,6.50
2022-09-21T03:19:17.460Z,6.57
2022-09-21T03:21:44.881Z,6.05
2022-09-21T03:24:12.025Z,7.00
2022-09-21T03:26:39.066Z,7.07
2022-09-21T03:29:05.818Z,6.60
2022-09-21T03:31:35.706Z,6.78
2022-09-21T03:34:02.680Z,7.00
2022-09-21T03:36:29.351Z,7.07
2022-09-21T03:38:56.091Z,6.32
2022-09-21T03:41:22.753Z,6.97
2022-09-21T03:43:49.476Z,6.50
2022-09-21T03:46:17.189Z,7.47
2022-09-21T03:48:47.451Z,6.78
2022-09-21T03:51:14.513Z,7.18
2022-09-21T03:53:41.281Z,7.05
2022-09-21T03:56:07.926Z,7.35
2022-09-21T03:58:34.596Z,8.02
2022-09-21T04:01:03.063Z,8.75
2022-09-21T04:03:30.025Z,7.38
2022-09-21T04:05:56.760Z,7.13
2022-09-21T04:08:23.601Z,7.57
2022-09-21T04:10:50.302Z,7.38
2022-09-21T04:13:16.991Z,7.18
2022-09-21T04:15:43.717Z,7.15
2022-09-21T04:18:10.461Z,7.70
2022-09-21T04:20:37.157Z,7.55
2022-09-21T04:23:03.806Z,7.78
2022-09-21T04:25:30.464Z,7.45
2022-09-21T04:27:57.483Z,6.75
2022-09-21T04:30:24.164Z,7.18
2022-09-21T04:32:50.892Z,6.88
2022-09-21T04:35:17.632Z,7.10
2022-09-21T04:37:44.265Z,6.50
2022-09-21T04:40:11.037Z,6.88
2022-09-21T04:42:37.753Z,5.93
2022-09-21T04:45:05.568Z,7.03
2022-09-21T04:47:32.329Z,6.60
2022-09-21T04:49:59.011Z,6.60
2022-09-21T04:52:25.776Z,6.30
2022-09-21T04:54:53.066Z,6.22
2022-09-21T04:57:19.742Z,6.93
2022-09-21T04:59:46.389Z,7.30
2022-09-21T05:02:13.171Z,7.97
2022-09-21T05:04:39.835Z,7.13
2022-09-21T05:07:06.602Z,6.10
2022-09-21T05:09:51.578Z,6.63
2022-09-21T05:12:18.259Z,6.65
2022-09-21T05:14:45.116Z,7.32
2022-09-21T05:17:12.997Z,6.88
2022-09-21T05:19:40.371Z,8.40
2022-09-21T05:22:07.445Z,9.25
2022-09-21T05:24:34.272Z,9.73
2022-09-21T05:27:01.720Z,8.77
2022-09-21T05:29:28.679Z,9.73
2022-09-21T05:32:02.345Z,10.18
2022-09-21T05:35:03.146Z,7.93
2022-09-21T05:37:32.638Z,10.45
2022-09-21T05:39:59.664Z,8.80
2022-09-21T05:42:26.678Z,9.88
2022-09-21T05:44:55.270Z,9.10
2022-09-21T05:47:28.964Z,8.55
2022-09-21T05:50:26.928Z,6.17
2022-09-21T05:53:21.263Z,8.35
2022-09-21T05:55:53.778Z,8.77
2022-09-21T05:58:35.629Z,9.93
2022-09-21T06:01:21.357Z,10.07
2022-09-21T06:03:50.296Z,10.50
2022-09-21T06:06:20.899Z,11.38
2022-09-21T06:08:47.553Z,10.25
2022-09-21T06:11:14.331Z,10.95
2022-09-21T06:13:41.489Z,9.98
2022-09-21T06:16:08.358Z,10.13
2022-09-21T06:18:39.902Z,10.27
2022-09-21T06:21:07.826Z,10.10
2022-09-21T06:23:34.804Z,8.82
2022-09-21T06:26:01.883Z,9.07
2022-09-21T06:28:29.652Z,9.50
2022-09-21T06:30:58.318Z,8.38
2022-09-21T06:33:25.521Z,8.75
2022-09-21T06:35:55.805Z,8.18
2022-09-21T06:38:23.554Z,9.18
2022-09-21T06:40:51.523Z,8.27
2022-09-21T06:43:18.943Z,9.40
2022-09-21T06:45:54.153Z,8.52
2022-09-21T06:48:21.659Z,8.57
2022-09-21T06:50:48.541Z,7.60
2022-09-21T06:53:15.868Z,9.23
2022-09-21T06:55:42.694Z,7.45
2022-09-21T06:58:10.164Z,8.18
2022-09-21T07:00:36.840Z,8.00
2022-09-21T07:03:03.769Z,7.45
2022-09-21T07:05:32.823Z,7.15
2022-09-21T07:08:00.458Z,7.55
2022-09-21T07:10:28.060Z,6.93
2022-09-21T07:12:54.785Z,6.85
2022-09-21T07:15:21.691Z,6.40
2022-09-21T07:18:05.445Z,6.57
2022-09-21T07:20:32.449Z,6.78
2022-09-21T07:22:59.517Z,7.15
2022-09-21T07:25:26.191Z,7.45
2022-09-21T07:27:53.641Z,6.53
2022-09-21T07:30:20.284Z,7.07
2022-09-21T07:32:47.032Z,7.78
2022-09-21T07:35:13.876Z,6.95
2022-09-21T07:37:40.570Z,7.45
2022-09-21T07:40:07.977Z,7.43
2022-09-21T07:42:34.749Z,7.93
2022-09-21T07:45:04.976Z,7.22
2022-09-21T07:47:32.134Z,8.10
2022-09-21T07:49:58.804Z,8.10
2022-09-21T07:52:25.470Z,8.48
2022-09-21T07:54:52.102Z,8.35
2022-09-21T07:57:37.294Z,7.68
2022-09-21T08:00:05.458Z,8.18
2022-09-21T08:02:32.177Z,9.02
2022-09-21T08:04:58.931Z,9.13
2022-09-21T08:07:26.628Z,9.00
2022-09-21T08:09:53.501Z,9.20
2022-09-21T08:12:20.755Z,8.80
2022-09-21T08:14:48.115Z,8.70
2022-09-21T08:17:14.896Z,8.70
2022-09-21T08:19:41.873Z,9.50
2022-09-21T08:22:08.668Z,8.63
2022-09-21T08:24:35.761Z,8.32
2022-09-21T08:27:02.644Z,7.43
2022-09-21T08:29:30.286Z,9.43
2022-09-21T08:31:57.674Z,11.70
2022-09-21T08:34:24.503Z,9.50
2022-09-21T08:36:55.329Z,9.90
2022-09-21T08:39:22.602Z,10.50
2022-09-21T08:42:09.078Z,10.00
2022-09-21T08:44:57.713Z,8.88
2022-09-21T08:47:37.043Z,9.50
2022-09-21T08:50:05.444Z,10.30
2022-09-21T08:52:33.449Z,8.55
2022-09-21T08:55:17.958Z,8.20
2022-09-21T08:57:44.798Z,8.77
2022-09-21T09:00:17.161Z,8.00
2022-09-21T09:03:08.765Z,5.25
2022-09-21T09:06:13.238Z,4.10
2022-09-21T09:08:42.709Z,4.38
2022-09-21T09:11:18.025Z,4.50
2022-09-21T09:14:03.730Z,3.13
2022-09-21T09:16:56.094Z,2.33
2022-09-21T09:19:33.372Z,1.88
2022-09-21T09:22:04.422Z,2.03
2022-09-21T09:24:41.711Z,2.00
2022-09-21T09:27:20.418Z,1.90
2022-09-21T09:30:03.860Z,1.88
2022-09-21T09:32:47.642Z,1.80
2022-09-21T09:35:26.324Z,1.80
2022-09-21T09:38:03.024Z,2.10
2022-09-21T09:40:48.655Z,1.77
2022-09-21T09:43:54.307Z,1.75
2022-09-21T09:46:29.751Z,1.52
2022-09-21T09:49:24.965Z,1.83
2022-09-21T09:51:51.968Z,1.63
2022-09-21T09:54:21.690Z,1.50
2022-09-21T09:56:48.427Z,1.10
2022-09-21T09:59:29.299Z,1.30
2022-09-21T10:02:21.330Z,1.30
2022-09-21T10:05:06.706Z,1.40
2022-09-21T10:07:42.748Z,1.23
2022-09-21T10:10:21.657Z,1.20
2022-09-21T10:12:50.015Z,1.27
2022-09-21T10:15:18.360Z,1.20
2022-09-21T10:17:48.858Z,1.20
2022-09-21T10:20:17.933Z,1.10
2022-09-21T10:22:52.801Z,1.02
2022-09-21T10:25:21.193Z,1.00
2022-09-21T10:27:52.228Z,1.10
2022-09-21T10:30:33.090Z,1.10
2022-09-21T10:33:00.006Z,1.13
2022-09-21T10:35:27.259Z,0.98
2022-09-21T10:38:22.045Z,1.35
2022-09-21T10:43:39.895Z,1.17
2022-09-21T10:46:09.429Z,1.10
2022-09-21T10:48:36.730Z,1.25
2022-09-21T10:51:04.360Z,1.20
2022-09-21T10:53:35.826Z,1.17
2022-09-21T10:56:22.370Z,1.30
2022-09-21T10:59:26.234Z,1.10
2022-09-21T11:01:56.144Z,1.10
2022-09-21T11:04:22.782Z,1.20
2022-09-21T11:06:54.590Z,0.90
2022-09-21T11:09:38.179Z,1.00
2022-09-21T11:12:21.343Z,1.00
2022-09-21T11:14:59.027Z,1.10
2022-09-21T11:17:44.438Z,0.95
2022-09-21T11:20:20.792Z,1.05
2022-09-21T11:23:14.471Z,0.75
2022-09-21T11:25:55.290Z,0.70
2022-09-21T11:28:40.888Z,1.02
2022-09-21T11:31:33.913Z,1.10
2022-09-21T11:34:28.117Z,1.00
2022-09-21T11:37:13.091Z,0.90
2022-09-21T11:40:24.438Z,0.80
2022-09-21T11:43:00.173Z,0.90
2022-09-21T11:45:50.605Z,0.93
2022-09-21T11:48:28.459Z,0.98
2022-09-21T11:51:07.078Z,0.80
2022-09-21T11:54:03.723Z,0.82
2022-09-21T11:56:43.764Z,1.00
2022-09-21T11:59:31.862Z,0.90
2022-09-21T12:02:17.296Z,1.00
2022-09-21T12:05:22.645Z,0.70
2022-09-21T12:08:19.228Z,0.88
2022-09-21T12:11:27.374Z,0.80
2022-09-21T12:14:03.044Z,0.85
2022-09-21T12:16:43.991Z,0.80
2022-09-21T12:19:29.746Z,0.90
2022-09-21T12:22:10.142Z,1.00
2022-09-21T12:24:44.407Z,1.00
2022-09-21T12:27:28.183Z,0.93
2022-09-21T12:30:17.057Z,0.90
2022-09-21T12:33:01.958Z,0.70
2022-09-21T12:38:10.664Z,0.70
2022-09-21T12:40:56.007Z,0.90
2022-09-21T12:43:40.873Z,0.80
2022-09-21T12:48:38.941Z,0.80
2022-09-21T12:51:18.758Z,1.00
2022-09-21T12:53:50.820Z,0.70
2022-09-21T12:56:29.937Z,0.80
2022-09-21T12:59:24.580Z,0.70
2022-09-21T13:02:12.487Z,0.77
2022-09-21T13:05:16.163Z,0.80
2022-09-21T13:08:07.810Z,0.85
2022-09-21T13:10:51.744Z,0.70
2022-09-21T13:13:45.229Z,1.00
2022-09-21T13:16:29.165Z,0.90
2022-09-21T13:19:05.457Z,0.70
2022-09-21T13:21:33.599Z,0.60
2022-09-21T13:24:07.858Z,0.65
2022-09-21T13:26:39.568Z,0.80
2022-09-21T13:29:29.732Z,0.82
2022-09-21T13:31:59.636Z,0.80
2022-09-21T13:34:30.722Z,0.90
2022-09-21T13:37:16.739Z,0.90
2022-09-21T13:40:01.958Z,0.60
2022-09-21T13:42:38.301Z,0.73
2022-09-21T13:45:13.803Z,0.70
2022-09-21T13:47:42.196Z,0.60
2022-09-21T13:50:26.630Z,0.70
2022-09-21T13:52:59.202Z,0.70
2022-09-21T13:55:33.827Z,0.77
2022-09-21T13:58:23.709Z,0.80
2022-09-21T14:00:50.536Z,0.55
2022-09-21T14:03:37.342Z,0.50
2022-09-21T14:06:12.570Z,0.60
2022-09-21T14:08:59.483Z,0.70
2022-09-21T14:11:33.498Z,0.68
2022-09-21T14:14:06.012Z,0.50
2022-09-21T14:16:37.255Z,0.85
2022-09-21T14:19:26.781Z,0.40
2022-09-21T14:22:06.265Z,0.63
2022-09-21T14:24:51.430Z,0.50
2022-09-21T14:27:34.352Z,0.50
2022-09-21T14:30:26.260Z,0.60
2022-09-21T14:33:03.293Z,0.50
2022-09-21T14:35:38.008Z,0.70
2022-09-21T14:38:21.532Z,0.80
2022-09-21T14:40:51.153Z,0.80
2022-09-21T14:43:28.121Z,0.80
2022-09-21T14:46:07.637Z,0.90
2022-09-21T14:48:53.103Z,0.77
2022-09-21T14:51:27.753Z,0.70
2022-09-21T14:54:02.382Z,0.68
2022-09-21T14:56:39.584Z,0.73
2022-09-21T14:59:48.049Z,0.75
2022-09-21T15:02:21.986Z,0.80
2022-09-21T15:05:17.007Z,0.80
2022-09-21T15:08:21.267Z,0.70
2022-09-21T15:10:56.379Z,0.80
2022-09-21T15:13:45.792Z,0.80
2022-09-21T15:16:35.919Z,0.70
2022-09-21T15:19:24.964Z,0.70
2022-09-21T15:21:54.915Z,0.95
2022-09-21T15:24:26.607Z,1.00
2022-09-21T15:27:03.495Z,0.90
2022-09-21T15:29:32.786Z,0.85
2022-09-21T15:32:01.123Z,0.80
2022-09-21T15:34:28.346Z,0.60
2022-09-21T15:37:06.870Z,0.90
2022-09-21T15:39:33.601Z,0.70
2022-09-21T15:42:17.883Z,0.82
2022-09-21T15:44:48.475Z,0.80
2022-09-21T15:47:20.082Z,1.00
2022-09-21T15:49:46.965Z,0.90
2022-09-21T15:52:34.338Z,0.80
2022-09-21T15:55:19.165Z,0.70
2022-09-21T15:57:48.632Z,0.60
2022-09-21T16:00:15.514Z,0.80
2022-09-21T16:02:50.743Z,0.70
2022-09-21T16:05:22.199Z,0.80
2022-09-21T16:07:49.112Z,1.00
2022-09-21T16:10:30.981Z,0.80
2022-09-21T16:13:27.385Z,0.50
2022-09-21T16:16:02.493Z,0.70
2022-09-21T16:18:50.987Z,1.25
2022-09-21T16:21:22.514Z,0.95
2022-09-21T16:23:51.877Z,0.82
2022-09-21T16:26:28.244Z,0.80
2022-09-21T16:29:20.932Z,0.88
2022-09-21T16:31:50.104Z,0.77
2022-09-21T16:34:25.040Z,1.08
2022-09-21T16:36:53.989Z,0.80
2022-09-21T16:39:21.873Z,0.73
2022-09-21T16:41:50.391Z,0.80
2022-09-21T16:44:25.575Z,0.80
2022-09-21T16:46:59.896Z,0.77
2022-09-21T16:49:31.214Z,0.80
2022-09-21T16:51:59.182Z,0.80
2022-09-21T16:54:27.303Z,0.70
2022-09-21T16:57:00.760Z,0.75
2022-09-21T16:59:28.249Z,0.80
2022-09-21T17:01:57.421Z,0.75
2022-09-21T17:04:27.485Z,0.98
2022-09-21T17:06:55.386Z,0.73
2022-09-21T17:09:35.613Z,0.80
2022-09-21T17:12:04.201Z,0.93
2022-09-21T17:14:35.695Z,0.80
2022-09-21T17:17:11.502Z,1.00
2022-09-21T17:19:38.870Z,1.10
2022-09-21T17:22:07.024Z,0.90
2022-09-21T17:24:49.676Z,0.90
2022-09-21T17:27:19.942Z,1.00
2022-09-21T17:29:50.352Z,0.90
2022-09-21T17:32:20.567Z,1.20
2022-09-21T17:34:54.338Z,1.10
2022-09-21T17:37:21.918Z,1.15
2022-09-21T17:39:48.695Z,1.20
2022-09-21T17:42:19.150Z,1.60
2022-09-21T17:45:04.922Z,1.35
2022-09-21T17:47:33.732Z,1.40
2022-09-21T17:50:12.574Z,1.13
2022-09-21T17:52:59.581Z,1.30
2022-09-21T17:55:26.764Z,1.35
2022-09-21T17:58:14.290Z,1.30
2022-09-21T18:01:02.991Z,1.35
2022-09-21T18:03:32.388Z,1.20
2022-09-21T18:06:00.455Z,1.17
2022-09-21T18:08:28.824Z,1.17
2022-09-21T18:11:10.491Z,1.10
2022-09-21T18:14:09.112Z,1.20
2022-09-21T18:16:44.622Z,1.42
2022-09-21T18:19:42.536Z,1.50
2022-09-21T18:22:31.567Z,1.40
2022-09-21T18:24:58.418Z,1.20
2022-09-21T18:27:25.447Z,1.30
2022-09-21T18:29:52.749Z,1.50
2022-09-21T18:32:41.186Z,1.30
2022-09-21T18:35:23.012Z,1.42
2022-09-21T18:38:07.938Z,1.50
2022-09-21T18:43:28.928Z,1.73
2022-09-21T18:46:22.633Z,1.80
2022-09-21T18:49:13.112Z,1.60
2022-09-21T18:51:57.448Z,1.58
2022-09-21T18:54:28.819Z,1.30
2022-09-21T18:56:56.141Z,1.67
2022-09-21T18:59:23.489Z,1.70
2022-09-21T19:01:50.837Z,1.90
2022-09-21T19:04:19.025Z,1.92
2022-09-21T19:06:48.700Z,2.10
2022-09-21T19:09:29.295Z,1.95
2022-09-21T19:12:19.071Z,1.95
2022-09-21T19:15:27.502Z,2.05
2022-09-21T19:18:20.010Z,1.90
2022-09-21T19:21:11.035Z,2.28
2022-09-21T19:24:05.685Z,2.47
2022-09-21T19:26:56.943Z,2.50
2022-09-21T19:30:01.052Z,2.50
2022-09-21T19:32:45.063Z,2.65
2022-09-21T19:35:21.652Z,2.70
2022-09-21T19:37:49.615Z,2.38
2022-09-21T19:40:18.180Z,2.50
2022-09-21T19:43:06.686Z,2.60
2022-09-21T19:46:16.102Z,2.47
2022-09-21T19:48:50.708Z,2.83
2022-09-21T19:51:47.628Z,2.70
2022-09-21T19:54:35.794Z,2.50
2022-09-21T19:57:30.119Z,2.97
2022-09-21T19:59:57.251Z,2.93
2022-09-21T20:02:32.376Z,3.00
2022-09-21T20:05:11.212Z,3.03
2022-09-21T20:07:58.216Z,3.30
2022-09-21T20:11:06.741Z,3.60
2022-09-21T20:14:00.181Z,3.80
2022-09-21T20:16:49.988Z,3.35
2022-09-21T20:19:31.820Z,3.05
2022-09-21T20:22:04.436Z,3.13
2022-09-21T20:24:39.828Z,3.42
2022-09-21T20:27:27.465Z,2.97
2022-09-21T20:29:54.366Z,3.25
2022-09-21T20:32:22.123Z,3.50
2022-09-21T20:34:50.283Z,3.33
2022-09-21T20:37:21.051Z,2.90
2022-09-21T20:39:47.759Z,2.92
2022-09-21T20:42:21.059Z,3.20
2022-09-21T20:44:47.939Z,3.45
2022-09-21T20:47:14.593Z,3.03
2022-09-21T20:49:41.308Z,3.15
2022-09-21T20:52:09.631Z,3.30
2022-09-21T20:54:36.364Z,3.03
2022-09-21T20:57:03.130Z,3.60
2022-09-21T20:59:29.838Z,3.35
2022-09-21T21:01:56.593Z,3.13
2022-09-21T21:04:23.688Z,3.05
2022-09-21T21:06:50.365Z,3.25
2022-09-21T21:09:17.363Z,3.30
2022-09-21T21:11:44.091Z,3.72
2022-09-21T21:14:10.871Z,3.33
2022-09-21T21:16:37.613Z,3.65
2022-09-21T21:19:04.667Z,3.45
2022-09-21T21:21:31.404Z,3.90
2022-09-21T21:24:16.506Z,3.72
2022-09-21T21:27:02.250Z,4.15
2022-09-21T21:29:30.265Z,4.07
2022-09-21T21:31:57.263Z,4.10
2022-09-21T21:34:23.964Z,3.90
2022-09-21T21:36:50.684Z,3.78
2022-09-21T21:39:17.342Z,4.32
2022-09-21T21:41:43.996Z,4.50
2022-09-21T21:44:11.588Z,3.78
2022-09-21T21:46:38.428Z,3.67
2022-09-21T21:49:05.304Z,3.72
2022-09-21T21:51:32.031Z,3.83
2022-09-21T21:53:59.055Z,3.90
2022-09-21T21:56:26.714Z,3.67
2022-09-21T21:58:54.605Z,3.75
2022-09-21T22:01:25.271Z,4.00
2022-09-21T22:03:57.336Z,3.55
2022-09-21T22:06:24.915Z,3.90
2022-09-21T22:08:52.629Z,3.70
2022-09-21T22:11:19.984Z,4.00
2022-09-21T22:13:47.406Z,3.90
2022-09-21T22:16:19.693Z,3.88
2022-09-21T22:18:46.511Z,3.95
2022-09-21T22:21:14.667Z,3.65
2022-09-21T22:23:42.068Z,3.63
2022-09-21T22:26:15.631Z,3.38
2022-09-21T22:28:44.959Z,3.17
2022-09-21T22:31:14.278Z,3.40
2022-09-21T22:33:41.298Z,3.45
2022-09-21T22:36:10.614Z,3.15
2022-09-21T22:38:42.607Z,3.35
2022-09-21T22:41:13.073Z,3.42
2022-09-21T22:43:40.325Z,3.63
2022-09-21T22:46:07.524Z,3.30
2022-09-21T22:48:35.284Z,3.65
2022-09-21T22:51:02.944Z,3.65
2022-09-21T22:53:29.800Z,3.40
2022-09-21T22:56:07.516Z,3.50
2022-09-21T22:58:36.419Z,3.35
2022-09-21T23:01:15.051Z,3.50
2022-09-21T23:03:42.369Z,3.38
2022-09-21T23:06:11.553Z,3.42
2022-09-21T23:08:38.966Z,3.45
2022-09-21T23:11:14.539Z,3.17
2022-09-21T23:13:41.972Z,3.40
2022-09-21T23:16:11.377Z,3.55
2022-09-21T23:18:39.870Z,3.30
2022-09-21T23:21:10.565Z,3.47
2022-09-21T23:23:37.274Z,3.50
2022-09-21T23:26:12.883Z,3.60
2022-09-21T23:28:41.824Z,3.60
2022-09-21T23:31:11.208Z,3.40
2022-09-21T23:33:43.479Z,3.38
2022-09-21T23:36:12.417Z,3.58
2022-09-21T23:38:40.169Z,3.33
2022-09-21T23:41:14.512Z,3.30
2022-09-21T23:43:42.621Z,3.63
2022-09-21T23:46:11.673Z,3.78
2022-09-21T23:48:38.853Z,3.80
2022-09-21T23:51:06.706Z,3.50
2022-09-21T23:53:34.119Z,3.83
2022-09-21T23:56:01.795Z,3.70
2022-09-21T23:58:28.844Z,3.40
